createdAt,value
2019-06-07T00:01:25.961Z,63.50
2019-06-07T00:03:56.606Z,63.60
2019-06-07T00:06:26.880Z,63.50
2019-06-07T00:08:57.071Z,63.50
2019-06-07T00:11:27.289Z,63.50
2019-06-07T00:13:57.696Z,63.60
2019-06-07T00:16:27.810Z,63.70
2019-06-07T00:18:57.964Z,63.70
2019-06-07T00:22:13.079Z,63.70
2019-06-07T00:24:00.174Z,63.80
2019-06-07T00:26:30.373Z,63.90
2019-06-07T00:29:00.778Z,64.10
2019-06-07T00:31:31.082Z,64.20
2019-06-07T00:34:01.476Z,64.20
2019-06-07T00:36:31.741Z,64.20
2019-06-07T00:39:02.102Z,64.30
2019-06-07T00:41:33.440Z,64.30
2019-06-07T00:44:03.858Z,64.30
2019-06-07T00:46:33.984Z,64.40
2019-06-07T00:49:04.322Z,64.50
2019-06-07T00:51:50.036Z,64.50
2019-06-07T00:54:07.684Z,64.50
2019-06-07T00:56:37.896Z,64.60
2019-06-07T00:59:11.721Z,64.70
2019-06-07T01:01:41.096Z,64.80
2019-06-07T01:04:13.247Z,64.80
2019-06-07T01:06:45.010Z,64.80
2019-06-07T01:09:15.367Z,65.00
2019-06-07T01:11:45.618Z,65.20
2019-06-07T01:14:19.358Z,65.10
2019-06-07T01:16:57.156Z,65.10
2019-06-07T01:19:22.245Z,65.20
2019-06-07T01:21:51.770Z,65.50
2019-06-07T01:24:24.520Z,65.40
2019-06-07T01:26:53.919Z,65.90
2019-06-07T01:29:25.023Z,65.60
2019-06-07T01:31:55.950Z,65.60
2019-06-07T01:34:26.892Z,65.60
2019-06-07T01:36:58.261Z,65.60
2019-06-07T01:39:31.078Z,65.70
2019-06-07T01:42:00.460Z,65.60
2019-06-07T01:44:31.396Z,65.90
2019-06-07T01:47:01.758Z,65.80
2019-06-07T01:49:32.058Z,66.00
2019-06-07T01:52:02.345Z,65.80
2019-06-07T01:54:57.492Z,66.10
2019-06-07T01:57:05.656Z,66.10
2019-06-07T01:59:35.839Z,66.00
2019-06-07T02:02:07.052Z,66.00
2019-06-07T02:04:37.333Z,66.20
2019-06-07T02:07:07.589Z,66.30
2019-06-07T02:09:37.861Z,66.20
2019-06-07T02:12:25.236Z,66.40
2019-06-07T02:14:40.064Z,66.30
2019-06-07T02:17:10.352Z,66.30
2019-06-07T02:19:40.611Z,66.90
2019-06-07T02:22:10.801Z,66.80
2019-06-07T02:24:41.121Z,66.80
2019-06-07T02:27:11.385Z,66.60
2019-06-07T02:29:41.699Z,66.60
2019-06-07T02:32:11.827Z,67.10
2019-06-07T02:34:42.139Z,67.20
2019-06-07T02:37:12.272Z,67.30
2019-06-07T02:39:43.720Z,67.40
2019-06-07T02:42:14.002Z,67.70
2019-06-07T02:44:44.431Z,67.90
2019-06-07T02:47:14.663Z,68.30
2019-06-07T02:49:44.966Z,67.90
2019-06-07T02:52:15.336Z,67.90
2019-06-07T02:54:45.564Z,68.20
2019-06-07T02:57:15.785Z,67.70
2019-06-07T03:00:06.579Z,68.10
2019-06-07T03:02:18.972Z,67.80
2019-06-07T03:04:49.346Z,68.10
2019-06-07T03:07:20.088Z,68.20
2019-06-07T03:09:51.035Z,68.10
2019-06-07T03:12:21.871Z,68.10
2019-06-07T03:14:52.949Z,68.00
2019-06-07T03:17:42.225Z,67.80
2019-06-07T03:20:14.188Z,67.70
2019-06-07T03:22:44.552Z,67.60
2019-06-07T03:25:14.807Z,67.80
2019-06-07T03:27:50.052Z,67.60
2019-06-07T03:30:39.055Z,67.60
2019-06-07T03:32:48.927Z,67.70
2019-06-07T03:35:19.267Z,67.70
2019-06-07T03:37:49.582Z,67.70
2019-06-07T03:40:19.782Z,67.70
2019-06-07T03:42:50.066Z,67.70
2019-06-07T03:45:20.459Z,67.70
2019-06-07T03:47:52.277Z,67.70
2019-06-07T03:50:22.508Z,67.70
2019-06-07T03:52:52.703Z,67.80
2019-06-07T03:55:23.274Z,67.80
2019-06-07T03:58:30.819Z,67.80
2019-06-07T04:00:25.492Z,68.00
2019-06-07T04:02:55.708Z,68.00
2019-06-07T04:05:25.975Z,68.00
2019-06-07T04:07:56.197Z,68.00
2019-06-07T04:10:44.669Z,68.00
2019-06-07T04:12:58.773Z,68.00
2019-06-07T04:15:30.735Z,68.00
2019-06-07T04:18:03.738Z,68.10
2019-06-07T04:20:36.174Z,68.20
2019-06-07T04:23:25.074Z,68.10
2019-06-07T04:25:42.257Z,68.10
2019-06-07T04:28:11.294Z,68.20
2019-06-07T04:30:43.154Z,68.10
2019-06-07T04:33:14.204Z,68.10
2019-06-07T04:35:45.291Z,68.10
2019-06-07T04:38:18.746Z,68.30
2019-06-07T04:40:50.529Z,68.70
2019-06-07T04:43:20.925Z,69.70
2019-06-07T04:45:51.654Z,70.20
2019-06-07T04:48:23.079Z,70.50
2019-06-07T04:50:54.973Z,71.00
2019-06-07T04:53:25.254Z,71.00
2019-06-07T04:55:56.062Z,70.50
2019-06-07T04:58:26.270Z,70.40
2019-06-07T05:01:03.042Z,70.40
2019-06-07T05:03:31.379Z,70.30
2019-06-07T05:06:00.538Z,70.30
2019-06-07T05:08:33.273Z,70.30
2019-06-07T05:11:02.973Z,70.60
2019-06-07T05:13:37.841Z,70.40
2019-06-07T05:16:05.177Z,70.60
2019-06-07T05:18:36.338Z,70.40
2019-06-07T05:21:07.558Z,69.50
2019-06-07T05:26:10.092Z,69.60
2019-06-07T05:28:42.845Z,67.70
2019-06-07T05:31:12.337Z,67.40
2019-06-07T05:33:43.607Z,67.70
2019-06-07T05:36:14.057Z,67.30
2019-06-07T05:38:45.024Z,65.50
2019-06-07T05:41:15.534Z,66.40
2019-06-07T05:43:55.202Z,66.60
2019-06-07T05:46:17.843Z,66.80
2019-06-07T05:48:48.075Z,66.80
2019-06-07T05:51:18.339Z,66.70
2019-06-07T05:53:48.636Z,66.70
2019-06-07T05:56:18.846Z,66.70
2019-06-07T05:58:49.150Z,66.70
2019-06-07T06:01:45.085Z,66.70
2019-06-07T06:03:54.298Z,66.90
2019-06-07T06:06:24.563Z,67.00
2019-06-07T06:09:12.920Z,66.70
2019-06-07T06:11:43.051Z,66.60
2019-06-07T06:14:07.410Z,66.90
2019-06-07T06:16:31.515Z,67.00
2019-06-07T06:19:02.156Z,66.90
2019-06-07T06:21:33.324Z,66.60
2019-06-07T06:24:03.526Z,66.60
2019-06-07T06:26:33.889Z,66.90
2019-06-07T06:29:04.230Z,66.60
2019-06-07T06:31:34.509Z,66.60
2019-06-07T06:34:04.797Z,66.40
2019-06-07T06:36:35.105Z,66.50
2019-06-07T06:39:06.650Z,66.60
2019-06-07T06:41:50.641Z,66.30
2019-06-07T06:44:12.341Z,67.10
2019-06-07T06:46:47.208Z,66.70
2019-06-07T06:49:14.572Z,66.90
2019-06-07T06:51:47.827Z,66.60
2019-06-07T06:54:29.510Z,66.50
2019-06-07T06:56:50.351Z,66.70
2019-06-07T06:59:38.102Z,66.00
2019-06-07T07:01:52.807Z,67.20
2019-06-07T07:04:23.206Z,66.40
2019-06-07T07:06:55.312Z,66.60
2019-06-07T07:09:26.242Z,67.00
2019-06-07T07:12:11.090Z,67.00
2019-06-07T07:14:28.552Z,67.10
2019-06-07T07:16:58.888Z,66.50
2019-06-07T07:19:29.137Z,66.70
2019-06-07T07:21:59.351Z,66.60
2019-06-07T07:24:29.569Z,65.70
2019-06-07T07:26:59.885Z,66.50
2019-06-07T07:29:30.063Z,67.50
2019-06-07T07:32:00.310Z,66.20
2019-06-07T07:34:35.512Z,65.90
2019-06-07T07:37:03.398Z,65.90
2019-06-07T07:39:33.624Z,65.60
2019-06-07T07:42:20.112Z,65.80
2019-06-07T07:44:35.875Z,64.60
2019-06-07T07:47:06.066Z,63.50
2019-06-07T07:49:36.191Z,63.60
2019-06-07T07:52:06.580Z,64.40
2019-06-07T07:54:36.887Z,64.20
2019-06-07T07:57:07.028Z,65.00
2019-06-07T07:59:44.156Z,63.70
2019-06-07T08:02:09.019Z,63.50
2019-06-07T08:05:13.739Z,63.80
2019-06-07T08:07:11.308Z,64.70
2019-06-07T08:09:41.644Z,65.40
2019-06-07T08:12:11.960Z,65.80
2019-06-07T08:14:43.102Z,63.60
2019-06-07T08:17:13.526Z,62.80
2019-06-07T08:19:43.765Z,62.30
2019-06-07T08:22:14.901Z,61.50
2019-06-07T08:24:45.128Z,60.10
2019-06-07T08:27:25.745Z,61.30
2019-06-07T08:30:03.819Z,61.70
2019-06-07T08:32:22.246Z,61.40
2019-06-07T08:34:55.065Z,60.90
2019-06-07T08:38:13.433Z,61.30
2019-06-07T08:39:59.742Z,61.90
2019-06-07T08:42:37.214Z,62.60
2019-06-07T08:45:06.611Z,62.00
2019-06-07T08:47:37.169Z,59.80
2019-06-07T08:50:08.225Z,59.10
2019-06-07T08:52:38.657Z,61.60
2019-06-07T08:55:09.782Z,62.20
2019-06-07T08:57:40.115Z,60.50
2019-06-07T09:00:42.607Z,60.70
2019-06-07T09:02:43.817Z,60.00
2019-06-07T09:05:14.554Z,60.30
2019-06-07T09:07:44.811Z,57.80
2019-06-07T09:10:16.873Z,57.90
2019-06-07T09:12:47.281Z,59.30
2019-06-07T09:15:23.430Z,58.30
2019-06-07T09:20:36.328Z,59.30
2019-06-07T09:23:00.061Z,57.90
2019-06-07T09:25:28.102Z,55.80
2019-06-07T09:28:04.268Z,56.90
2019-06-07T09:30:41.601Z,58.10
2019-06-07T09:33:12.592Z,57.50
2019-06-07T09:35:43.035Z,58.00
2019-06-07T09:38:24.987Z,56.80
2019-06-07T09:40:45.436Z,56.70
2019-06-07T09:44:00.647Z,57.40
2019-06-07T09:45:47.690Z,56.80
2019-06-07T09:49:01.294Z,57.70
2019-06-07T09:50:50.007Z,57.10
2019-06-07T09:53:23.007Z,57.10
2019-06-07T09:55:56.833Z,54.60
2019-06-07T10:01:00.153Z,55.30
2019-06-07T10:03:30.994Z,56.20
2019-06-07T10:06:07.578Z,54.00
2019-06-07T10:11:05.239Z,53.70
2019-06-07T10:13:35.413Z,55.30
2019-06-07T10:16:06.983Z,54.10
2019-06-07T10:18:37.673Z,54.20
2019-06-07T10:21:12.189Z,53.30
2019-06-07T10:23:39.853Z,54.60
2019-06-07T10:26:10.258Z,54.40
2019-06-07T10:28:40.671Z,53.90
2019-06-07T10:31:11.414Z,54.50
2019-06-07T10:33:41.995Z,52.80
2019-06-07T10:36:12.294Z,53.70
2019-06-07T10:38:42.607Z,53.40
2019-06-07T10:41:12.956Z,52.90
2019-06-07T10:43:43.711Z,54.20
2019-06-07T10:46:14.057Z,52.70
2019-06-07T10:48:44.471Z,53.80
2019-06-07T10:51:15.013Z,52.90
2019-06-07T10:53:45.548Z,52.10
2019-06-07T10:56:16.825Z,52.20
2019-06-07T10:58:48.098Z,51.60
2019-06-07T11:01:18.256Z,52.30
2019-06-07T11:03:48.544Z,51.40
2019-06-07T11:06:18.917Z,52.60
2019-06-07T11:08:49.212Z,53.50
2019-06-07T11:11:19.625Z,51.80
2019-06-07T11:13:52.440Z,51.60
2019-06-07T11:16:22.022Z,51.00
2019-06-07T11:18:52.311Z,51.90
2019-06-07T11:21:22.681Z,51.50
2019-06-07T11:23:54.733Z,51.30
2019-06-07T11:26:25.073Z,52.70
2019-06-07T11:28:55.484Z,51.60
2019-06-07T11:31:26.224Z,51.80
2019-06-07T11:33:56.519Z,51.70
2019-06-07T11:36:27.931Z,51.30
2019-06-07T11:38:58.222Z,51.00
2019-06-07T11:41:28.582Z,50.20
2019-06-07T11:43:59.023Z,50.80
2019-06-07T11:46:29.189Z,50.60
2019-06-07T11:48:59.576Z,50.20
2019-06-07T11:51:30.145Z,50.50
2019-06-07T11:54:00.418Z,50.80
2019-06-07T11:56:30.596Z,50.10
2019-06-07T11:59:00.802Z,50.10
2019-06-07T12:01:31.018Z,49.30
2019-06-07T12:04:01.150Z,49.10
2019-06-07T12:06:31.507Z,49.40
2019-06-07T12:09:01.708Z,49.30
2019-06-07T12:11:33.314Z,49.10
2019-06-07T12:14:03.499Z,49.10
2019-06-07T12:16:33.671Z,48.90
2019-06-07T12:19:03.959Z,48.80
2019-06-07T12:21:34.162Z,48.80
2019-06-07T12:24:05.466Z,49.50
2019-06-07T12:26:35.765Z,49.40
2019-06-07T12:29:06.262Z,48.90
2019-06-07T12:31:36.512Z,48.50
2019-06-07T12:34:06.838Z,48.70
2019-06-07T12:36:37.231Z,48.40
2019-06-07T12:39:08.215Z,48.70
2019-06-07T12:41:50.633Z,49.10
2019-06-07T12:44:22.832Z,49.20
2019-06-07T12:46:54.188Z,49.30
2019-06-07T12:49:24.585Z,48.90
2019-06-07T12:51:54.865Z,49.00
2019-06-07T12:54:25.106Z,49.30
2019-06-07T12:56:55.362Z,49.70
2019-06-07T12:59:25.538Z,49.60
2019-06-07T13:01:55.722Z,49.80
2019-06-07T13:04:27.659Z,49.90
2019-06-07T13:06:57.999Z,50.00
2019-06-07T13:09:28.237Z,50.10
2019-06-07T13:11:58.538Z,49.40
2019-06-07T13:14:28.904Z,49.20
2019-06-07T13:17:00.071Z,49.30
2019-06-07T13:19:30.310Z,49.40
2019-06-07T13:22:00.526Z,49.60
2019-06-07T13:24:30.796Z,49.30
2019-06-07T13:27:00.958Z,49.60
2019-06-07T13:29:32.317Z,49.70
2019-06-07T13:32:02.976Z,49.90
2019-06-07T13:34:33.280Z,49.90
2019-06-07T13:37:03.628Z,49.90
2019-06-07T13:39:33.951Z,50.00
2019-06-07T13:42:04.293Z,50.00
2019-06-07T13:44:34.599Z,49.70
2019-06-07T13:47:04.700Z,49.80
2019-06-07T13:49:34.873Z,50.00
2019-06-07T13:52:05.108Z,49.90
2019-06-07T13:54:35.440Z,50.20
2019-06-07T13:57:06.040Z,50.30
2019-06-07T13:59:36.272Z,50.60
2019-06-07T14:02:06.568Z,51.20
2019-06-07T14:04:36.771Z,51.70
2019-06-07T14:07:06.995Z,51.60
2019-06-07T14:09:37.224Z,51.90
2019-06-07T14:12:07.492Z,51.90
2019-06-07T14:14:37.746Z,52.30
2019-06-07T14:17:07.947Z,52.70
2019-06-07T14:19:38.091Z,53.10
2019-06-07T14:22:08.329Z,53.50
2019-06-07T14:24:38.570Z,53.60
2019-06-07T14:27:08.756Z,54.00
2019-06-07T14:29:39.374Z,54.10
2019-06-07T14:32:10.663Z,54.00
2019-06-07T14:34:41.033Z,53.30
2019-06-07T14:37:11.200Z,54.00
2019-06-07T14:39:41.532Z,54.30
2019-06-07T14:42:11.611Z,54.40
2019-06-07T14:44:41.898Z,54.50
2019-06-07T14:47:13.775Z,54.90
2019-06-07T14:49:44.045Z,55.00
2019-06-07T14:52:14.405Z,55.30
2019-06-07T14:54:44.722Z,55.00
2019-06-07T14:57:14.899Z,55.00
2019-06-07T14:59:45.230Z,55.00
2019-06-07T15:02:15.434Z,55.00
2019-06-07T15:04:47.498Z,55.10
2019-06-07T15:07:17.641Z,55.30
2019-06-07T15:09:47.838Z,55.40
2019-06-07T15:12:25.030Z,55.40
2019-06-07T15:14:49.986Z,55.50
2019-06-07T15:17:20.160Z,55.40
2019-06-07T15:19:51.521Z,55.70
2019-06-07T15:22:21.813Z,55.50
2019-06-07T15:24:52.078Z,55.60
2019-06-07T15:27:22.318Z,55.50
2019-06-07T15:29:52.521Z,55.60
2019-06-07T15:32:22.746Z,55.80
2019-06-07T15:34:52.979Z,55.60
2019-06-07T15:37:23.095Z,56.00
2019-06-07T15:39:53.364Z,55.50
2019-06-07T15:42:23.888Z,55.50
2019-06-07T15:44:55.946Z,55.60
2019-06-07T15:47:26.996Z,55.50
2019-06-07T15:49:57.538Z,55.60
2019-06-07T15:52:27.782Z,55.50
2019-06-07T15:54:57.938Z,55.70
2019-06-07T15:57:28.073Z,56.10
2019-06-07T15:59:58.437Z,56.30
2019-06-07T16:02:28.691Z,56.50
2019-06-07T16:04:59.025Z,56.70
2019-06-07T16:07:29.232Z,56.80
2019-06-07T16:09:59.559Z,56.90
2019-06-07T16:12:29.839Z,58.00
2019-06-07T16:14:59.997Z,57.40
2019-06-07T16:17:30.189Z,57.70
2019-06-07T16:20:01.383Z,57.80
2019-06-07T16:22:33.444Z,58.10
2019-06-07T16:25:04.524Z,57.90
2019-06-07T16:27:36.556Z,58.20
2019-06-07T16:30:09.227Z,58.00
2019-06-07T16:32:39.623Z,57.80
2019-06-07T16:35:12.416Z,57.90
2019-06-07T16:37:42.971Z,58.40
2019-06-07T16:40:15.263Z,58.50
2019-06-07T16:42:45.417Z,58.80
2019-06-07T16:45:16.285Z,59.10
2019-06-07T16:47:47.847Z,59.20
2019-06-07T16:50:18.775Z,59.10
2019-06-07T16:52:49.772Z,59.20
2019-06-07T16:55:20.603Z,59.30
2019-06-07T16:57:50.820Z,59.00
2019-06-07T17:00:21.441Z,59.10
2019-06-07T17:02:51.642Z,59.10
2019-06-07T17:05:22.089Z,59.50
2019-06-07T17:07:52.305Z,59.40
2019-06-07T17:10:23.808Z,60.00
2019-06-07T17:12:54.000Z,59.10
2019-06-07T17:15:24.602Z,59.10
2019-06-07T17:17:54.886Z,59.00
2019-06-07T17:20:25.568Z,59.10
2019-06-07T17:22:55.765Z,59.20
2019-06-07T17:25:26.002Z,59.20
2019-06-07T17:27:56.241Z,59.00
2019-06-07T17:30:26.448Z,59.00
2019-06-07T17:32:59.510Z,59.00
2019-06-07T17:35:28.812Z,59.20
2019-06-07T17:37:59.025Z,59.30
2019-06-07T17:40:29.265Z,59.70
2019-06-07T17:42:59.552Z,59.90
2019-06-07T17:45:30.019Z,59.80
2019-06-07T17:48:00.215Z,59.60
2019-06-07T17:50:30.486Z,59.50
2019-06-07T17:53:00.715Z,59.50
2019-06-07T17:55:31.012Z,59.30
2019-06-07T17:58:01.147Z,59.10
2019-06-07T18:00:46.663Z,59.00
2019-06-07T18:03:17.527Z,58.70
2019-06-07T18:05:49.668Z,58.40
2019-06-07T18:08:19.954Z,58.30
2019-06-07T18:10:50.271Z,58.40
2019-06-07T18:13:21.848Z,58.50
2019-06-07T18:15:56.937Z,58.60
2019-06-07T18:18:24.268Z,58.50
2019-06-07T18:20:55.635Z,58.50
2019-06-07T18:23:25.928Z,58.30
2019-06-07T18:25:58.492Z,58.20
2019-06-07T18:28:29.052Z,58.20
2019-06-07T18:30:59.358Z,58.10
2019-06-07T18:33:29.477Z,57.90
2019-06-07T18:35:59.782Z,57.80
2019-06-07T18:38:30.903Z,57.60
2019-06-07T18:41:01.123Z,57.50
2019-06-07T18:43:31.506Z,57.50
2019-06-07T18:46:02.015Z,57.40
2019-06-07T18:48:32.288Z,57.30
2019-06-07T18:51:02.838Z,57.40
2019-06-07T18:53:32.980Z,57.20
2019-06-07T18:56:03.534Z,57.30
2019-06-07T18:58:33.886Z,57.20
2019-06-07T19:01:04.687Z,57.00
2019-06-07T19:03:35.050Z,57.20
2019-06-07T19:06:05.641Z,57.40
2019-06-07T19:08:36.078Z,57.40
2019-06-07T19:11:06.454Z,57.30
2019-06-07T19:13:36.809Z,57.20
2019-06-07T19:16:07.035Z,57.70
2019-06-07T19:18:38.437Z,57.40
2019-06-07T19:21:08.783Z,57.40
2019-06-07T19:23:38.977Z,57.40
2019-06-07T19:26:09.127Z,57.50
2019-06-07T19:28:40.355Z,57.50
2019-06-07T19:31:10.648Z,57.60
2019-06-07T19:33:49.187Z,57.50
2019-06-07T19:36:12.760Z,57.50
2019-06-07T19:38:43.119Z,57.60
2019-06-07T19:41:19.744Z,57.50
2019-06-07T19:43:45.445Z,57.70
2019-06-07T19:46:15.570Z,57.80
2019-06-07T19:48:45.884Z,57.90
2019-06-07T19:51:16.120Z,57.90
2019-06-07T19:53:46.494Z,58.00
2019-06-07T19:56:16.685Z,58.10
2019-06-07T19:58:46.815Z,58.20
2019-06-07T20:01:17.094Z,58.00
2019-06-07T20:03:49.622Z,58.10
2019-06-07T20:06:19.243Z,58.20
2019-06-07T20:08:49.497Z,58.10
2019-06-07T20:11:19.860Z,58.20
2019-06-07T20:13:50.400Z,58.50
2019-06-07T20:16:20.920Z,58.10
2019-06-07T20:18:51.079Z,58.20
2019-06-07T20:21:21.319Z,58.50
2019-06-07T20:23:51.576Z,58.40
2019-06-07T20:26:21.775Z,58.70
2019-06-07T20:28:51.920Z,58.60
2019-06-07T20:31:22.082Z,58.70
2019-06-07T20:33:52.434Z,58.80
2019-06-07T20:36:22.824Z,58.80
2019-06-07T20:38:53.023Z,58.70
2019-06-07T20:41:23.697Z,58.60
2019-06-07T20:43:53.861Z,58.70
2019-06-07T20:46:24.167Z,58.70
2019-06-07T20:48:54.342Z,58.60
2019-06-07T20:51:24.735Z,58.70
2019-06-07T20:53:54.991Z,58.90
2019-06-07T20:56:25.153Z,59.00
2019-06-07T20:58:55.348Z,58.90
2019-06-07T21:01:25.507Z,59.00
2019-06-07T21:03:55.732Z,59.00
2019-06-07T21:06:25.979Z,59.20
2019-06-07T21:08:56.227Z,59.20
2019-06-07T21:11:26.356Z,59.30
2019-06-07T21:13:56.626Z,59.30
2019-06-07T21:16:26.836Z,59.40
2019-06-07T21:18:57.083Z,59.50
2019-06-07T21:21:27.262Z,59.60
2019-06-07T21:23:57.456Z,59.50
2019-06-07T21:26:27.727Z,59.60
2019-06-07T21:28:57.921Z,59.60
2019-06-07T21:31:28.041Z,59.80
2019-06-07T21:33:59.237Z,59.90
2019-06-07T21:36:29.532Z,60.00
2019-06-07T21:38:59.721Z,60.00
2019-06-07T21:41:29.847Z,60.10
2019-06-07T21:43:59.945Z,60.50
2019-06-07T21:46:30.230Z,60.40
2019-06-07T21:49:00.465Z,60.40
2019-06-07T21:51:32.772Z,60.60
2019-06-07T21:54:06.674Z,60.40
2019-06-07T21:56:34.839Z,60.60
2019-06-07T21:59:05.103Z,60.70
2019-06-07T22:01:36.083Z,60.80
2019-06-07T22:04:07.490Z,60.90
2019-06-07T22:06:37.816Z,60.80
2019-06-07T22:09:09.956Z,60.70
2019-06-07T22:11:40.462Z,60.90
2019-06-07T22:14:10.718Z,61.00
2019-06-07T22:16:40.972Z,61.60
2019-06-07T22:19:11.146Z,61.20
2019-06-07T22:21:41.535Z,61.30
2019-06-07T22:24:12.958Z,61.20
2019-06-07T22:26:43.363Z,61.50
2019-06-07T22:29:14.438Z,61.40
2019-06-07T22:31:44.602Z,61.30
2019-06-07T22:34:15.128Z,61.40
2019-06-07T22:36:45.403Z,61.40
2019-06-07T22:39:15.876Z,61.50
2019-06-07T22:41:46.053Z,61.50
2019-06-07T22:44:16.248Z,61.60
2019-06-07T22:46:47.472Z,61.60
2019-06-07T22:49:17.699Z,61.40
2019-06-07T22:51:48.034Z,61.60
2019-06-07T22:54:18.194Z,61.60
2019-06-07T22:56:53.364Z,61.60
2019-06-07T22:59:23.518Z,61.70
2019-06-07T23:01:53.715Z,61.80
2019-06-07T23:04:23.783Z,61.80
2019-06-07T23:06:53.926Z,61.90
2019-06-07T23:09:24.125Z,61.70
2019-06-07T23:11:54.341Z,61.80
2019-06-07T23:14:25.756Z,61.60
2019-06-07T23:16:56.345Z,61.70
2019-06-07T23:19:26.704Z,61.60
2019-06-07T23:21:56.860Z,62.50
2019-06-07T23:24:27.131Z,61.70
2019-06-07T23:26:57.248Z,61.60
2019-06-07T23:29:27.468Z,61.50
2019-06-07T23:31:57.613Z,61.40
2019-06-07T23:34:27.915Z,61.50
2019-06-07T23:36:58.086Z,61.60
2019-06-07T23:39:28.176Z,61.50
2019-06-07T23:41:58.351Z,61.20
2019-06-07T23:44:28.551Z,61.50
2019-06-07T23:47:10.746Z,61.50
2019-06-07T23:49:30.766Z,61.40
2019-06-07T23:52:01.984Z,61.40
2019-06-07T23:54:32.298Z,61.50
2019-06-07T23:57:02.542Z,61.40
2019-06-07T23:59:32.699Z,61.10
